sensor_id;sensor_type;location;lat;lon;timestamp;temperature;humidity
9919;DHT22;4998;51.024;13.828;2022-07-03T00:00:08;21.60;50.50
9919;DHT22;4998;51.024;13.828;2022-07-03T00:02:35;21.60;50.90
9919;DHT22;4998;51.024;13.828;2022-07-03T00:05:02;21.60;50.80
9919;DHT22;4998;51.024;13.828;2022-07-03T00:07:29;21.60;51.00
9919;DHT22;4998;51.024;13.828;2022-07-03T00:09:57;21.50;51.10
9919;DHT22;4998;51.024;13.828;2022-07-03T00:12:24;21.40;51.10
9919;DHT22;4998;51.024;13.828;2022-07-03T00:14:51;21.40;51.30
9919;DHT22;4998;51.024;13.828;2022-07-03T00:17:19;21.30;51.40
9919;DHT22;4998;51.024;13.828;2022-07-03T00:19:46;21.40;51.80
9919;DHT22;4998;51.024;13.828;2022-07-03T00:22:14;21.20;51.60
9919;DHT22;4998;51.024;13.828;2022-07-03T00:24:44;21.10;51.70
9919;DHT22;4998;51.024;13.828;2022-07-03T00:27:11;21.10;52.00
9919;DHT22;4998;51.024;13.828;2022-07-03T00:29:42;21.10;51.90
9919;DHT22;4998;51.024;13.828;2022-07-03T00:32:11;21.00;52.00
9919;DHT22;4998;51.024;13.828;2022-07-03T00:34:41;21.00;52.10
9919;DHT22;4998;51.024;13.828;2022-07-03T00:37:09;20.90;52.20
9919;DHT22;4998;51.024;13.828;2022-07-03T00:39:37;20.90;52.20
9919;DHT22;4998;51.024;13.828;2022-07-03T00:42:07;20.90;52.30
9919;DHT22;4998;51.024;13.828;2022-07-03T00:44:42;20.80;52.40
9919;DHT22;4998;51.024;13.828;2022-07-03T00:47:10;20.80;52.60
9919;DHT22;4998;51.024;13.828;2022-07-03T00:49:40;20.70;52.50
9919;DHT22;4998;51.024;13.828;2022-07-03T00:52:11;20.70;52.70
9919;DHT22;4998;51.024;13.828;2022-07-03T00:54:43;20.70;52.80
9919;DHT22;4998;51.024;13.828;2022-07-03T00:57:14;20.60;53.00
9919;DHT22;4998;51.024;13.828;2022-07-03T00:59:41;20.50;53.00
9919;DHT22;4998;51.024;13.828;2022-07-03T01:02:15;20.50;53.00
9919;DHT22;4998;51.024;13.828;2022-07-03T01:04:52;20.40;53.30
9919;DHT22;4998;51.024;13.828;2022-07-03T01:07:33;20.40;53.60
9919;DHT22;4998;51.024;13.828;2022-07-03T01:10:04;20.40;53.70
9919;DHT22;4998;51.024;13.828;2022-07-03T01:12:43;20.30;53.60
9919;DHT22;4998;51.024;13.828;2022-07-03T01:15:21;20.30;53.80
9919;DHT22;4998;51.024;13.828;2022-07-03T01:18:02;20.20;53.80
9919;DHT22;4998;51.024;13.828;2022-07-03T01:20:32;20.20;54.10
9919;DHT22;4998;51.024;13.828;2022-07-03T01:23:00;20.20;54.10
9919;DHT22;4998;51.024;13.828;2022-07-03T01:25:41;20.10;53.90
9919;DHT22;4998;51.024;13.828;2022-07-03T01:28:11;20.10;54.40
9919;DHT22;4998;51.024;13.828;2022-07-03T01:30:40;20.10;54.40
9919;DHT22;4998;51.024;13.828;2022-07-03T01:33:09;20.10;54.40
9919;DHT22;4998;51.024;13.828;2022-07-03T01:35:38;20.10;54.60
9919;DHT22;4998;51.024;13.828;2022-07-03T01:38:08;20.00;54.60
9919;DHT22;4998;51.024;13.828;2022-07-03T01:40:37;20.00;54.90
9919;DHT22;4998;51.024;13.828;2022-07-03T01:43:07;19.90;54.80
9919;DHT22;4998;51.024;13.828;2022-07-03T01:45:39;19.90;55.00
9919;DHT22;4998;51.024;13.828;2022-07-03T01:48:09;19.90;55.20
9919;DHT22;4998;51.024;13.828;2022-07-03T01:50:37;19.90;55.20
9919;DHT22;4998;51.024;13.828;2022-07-03T01:53:07;19.80;55.20
9919;DHT22;4998;51.024;13.828;2022-07-03T01:55:35;19.70;55.50
9919;DHT22;4998;51.024;13.828;2022-07-03T01:58:05;19.70;55.50
9919;DHT22;4998;51.024;13.828;2022-07-03T02:00:40;19.70;55.60
9919;DHT22;4998;51.024;13.828;2022-07-03T02:03:08;19.60;56.00
9919;DHT22;4998;51.024;13.828;2022-07-03T02:05:39;19.60;55.90
9919;DHT22;4998;51.024;13.828;2022-07-03T02:08:33;19.50;56.10
9919;DHT22;4998;51.024;13.828;2022-07-03T02:11:09;19.50;56.30
9919;DHT22;4998;51.024;13.828;2022-07-03T02:13:44;19.50;56.40
9919;DHT22;4998;51.024;13.828;2022-07-03T02:16:13;19.50;56.50
9919;DHT22;4998;51.024;13.828;2022-07-03T02:18:43;19.40;56.40
9919;DHT22;4998;51.024;13.828;2022-07-03T02:21:14;19.40;57.10
9919;DHT22;4998;51.024;13.828;2022-07-03T02:23:52;19.40;56.80
9919;DHT22;4998;51.024;13.828;2022-07-03T02:26:23;19.40;57.10
9919;DHT22;4998;51.024;13.828;2022-07-03T02:28:58;19.40;56.90
9919;DHT22;4998;51.024;13.828;2022-07-03T02:31:34;19.30;57.10
9919;DHT22;4998;51.024;13.828;2022-07-03T02:34:05;19.30;57.20
9919;DHT22;4998;51.024;13.828;2022-07-03T02:36:35;19.30;57.10
9919;DHT22;4998;51.024;13.828;2022-07-03T02:39:02;19.30;57.30
9919;DHT22;4998;51.024;13.828;2022-07-03T02:41:39;19.20;57.20
9919;DHT22;4998;51.024;13.828;2022-07-03T02:44:20;19.20;57.60
9919;DHT22;4998;51.024;13.828;2022-07-03T02:46:54;19.20;57.60
9919;DHT22;4998;51.024;13.828;2022-07-03T02:49:38;19.20;57.60
9919;DHT22;4998;51.024;13.828;2022-07-03T02:52:17;19.10;57.80
9919;DHT22;4998;51.024;13.828;2022-07-03T02:54:48;19.10;57.80
9919;DHT22;4998;51.024;13.828;2022-07-03T02:57:17;19.10;57.70
9919;DHT22;4998;51.024;13.828;2022-07-03T02:59:53;19.10;58.00
9919;DHT22;4998;51.024;13.828;2022-07-03T03:02:32;19.10;58.20
9919;DHT22;4998;51.024;13.828;2022-07-03T03:05:03;19.10;58.30
9919;DHT22;4998;51.024;13.828;2022-07-03T03:07:35;19.10;58.20
9919;DHT22;4998;51.024;13.828;2022-07-03T03:10:02;19.00;58.20
9919;DHT22;4998;51.024;13.828;2022-07-03T03:12:31;19.10;58.30
9919;DHT22;4998;51.024;13.828;2022-07-03T03:15:03;19.10;58.60
9919;DHT22;4998;51.024;13.828;2022-07-03T03:17:43;19.00;58.70
9919;DHT22;4998;51.024;13.828;2022-07-03T03:20:15;19.00;58.80
9919;DHT22;4998;51.024;13.828;2022-07-03T03:23:08;19.00;58.80
9919;DHT22;4998;51.024;13.828;2022-07-03T03:25:36;19.00;59.00
9919;DHT22;4998;51.024;13.828;2022-07-03T03:28:03;19.00;58.80
9919;DHT22;4998;51.024;13.828;2022-07-03T03:30:31;19.00;58.90
9919;DHT22;4998;51.024;13.828;2022-07-03T03:32:58;19.00;59.10
9919;DHT22;4998;51.024;13.828;2022-07-03T03:35:25;18.90;59.10
9919;DHT22;4998;51.024;13.828;2022-07-03T03:37:53;19.00;59.40
9919;DHT22;4998;51.024;13.828;2022-07-03T03:40:20;19.00;59.40
9919;DHT22;4998;51.024;13.828;2022-07-03T03:42:47;18.90;59.40
9919;DHT22;4998;51.024;13.828;2022-07-03T03:45:14;19.00;59.60
9919;DHT22;4998;51.024;13.828;2022-07-03T03:47:42;19.00;59.70
9919;DHT22;4998;51.024;13.828;2022-07-03T03:50:09;19.00;60.00
9919;DHT22;4998;51.024;13.828;2022-07-03T03:52:36;19.00;60.80
9919;DHT22;4998;51.024;13.828;2022-07-03T03:55:04;19.00;60.10
9919;DHT22;4998;51.024;13.828;2022-07-03T03:57:31;19.00;60.40
9919;DHT22;4998;51.024;13.828;2022-07-03T03:59:58;19.00;60.40
9919;DHT22;4998;51.024;13.828;2022-07-03T04:02:25;19.00;60.60
9919;DHT22;4998;51.024;13.828;2022-07-03T04:04:53;19.10;60.60
9919;DHT22;4998;51.024;13.828;2022-07-03T04:07:20;19.10;60.90
9919;DHT22;4998;51.024;13.828;2022-07-03T04:09:47;19.10;60.90
9919;DHT22;4998;51.024;13.828;2022-07-03T04:12:14;19.20;61.00
9919;DHT22;4998;51.024;13.828;2022-07-03T04:14:41;19.30;61.40
9919;DHT22;4998;51.024;13.828;2022-07-03T04:17:08;19.30;61.40
9919;DHT22;4998;51.024;13.828;2022-07-03T04:19:35;19.30;61.40
9919;DHT22;4998;51.024;13.828;2022-07-03T04:22:04;19.40;61.50
9919;DHT22;4998;51.024;13.828;2022-07-03T04:24:34;19.60;61.90
9919;DHT22;4998;51.024;13.828;2022-07-03T04:27:01;19.50;61.70
9919;DHT22;4998;51.024;13.828;2022-07-03T04:29:28;19.70;61.90
9919;DHT22;4998;51.024;13.828;2022-07-03T04:31:54;19.70;61.90
9919;DHT22;4998;51.024;13.828;2022-07-03T04:34:21;19.80;62.10
9919;DHT22;4998;51.024;13.828;2022-07-03T04:36:48;20.00;62.50
9919;DHT22;4998;51.024;13.828;2022-07-03T04:39:17;20.10;62.70
9919;DHT22;4998;51.024;13.828;2022-07-03T04:41:44;20.30;63.00
9919;DHT22;4998;51.024;13.828;2022-07-03T04:44:11;20.50;63.10
9919;DHT22;4998;51.024;13.828;2022-07-03T04:46:38;20.80;63.10
9919;DHT22;4998;51.024;13.828;2022-07-03T04:49:06;21.10;63.10
9919;DHT22;4998;51.024;13.828;2022-07-03T04:51:33;21.30;62.70
9919;DHT22;4998;51.024;13.828;2022-07-03T04:54:00;21.60;62.50
9919;DHT22;4998;51.024;13.828;2022-07-03T04:56:28;21.90;62.00
9919;DHT22;4998;51.024;13.828;2022-07-03T04:58:55;22.10;61.70
9919;DHT22;4998;51.024;13.828;2022-07-03T05:01:23;22.40;61.30
9919;DHT22;4998;51.024;13.828;2022-07-03T05:03:50;22.60;60.60
9919;DHT22;4998;51.024;13.828;2022-07-03T05:06:17;22.90;60.50
9919;DHT22;4998;51.024;13.828;2022-07-03T05:08:44;23.10;60.00
9919;DHT22;4998;51.024;13.828;2022-07-03T05:11:11;23.30;59.70
9919;DHT22;4998;51.024;13.828;2022-07-03T05:13:39;23.50;59.30
9919;DHT22;4998;51.024;13.828;2022-07-03T05:16:06;23.70;58.90
9919;DHT22;4998;51.024;13.828;2022-07-03T05:18:33;23.90;58.60
9919;DHT22;4998;51.024;13.828;2022-07-03T05:21:01;24.00;58.20
9919;DHT22;4998;51.024;13.828;2022-07-03T05:23:28;24.20;58.10
9919;DHT22;4998;51.024;13.828;2022-07-03T05:25:55;24.30;57.80
9919;DHT22;4998;51.024;13.828;2022-07-03T05:28:24;24.50;57.70
9919;DHT22;4998;51.024;13.828;2022-07-03T05:30:52;24.60;57.40
9919;DHT22;4998;51.024;13.828;2022-07-03T05:33:19;24.80;57.20
9919;DHT22;4998;51.024;13.828;2022-07-03T05:35:46;24.90;57.10
9919;DHT22;4998;51.024;13.828;2022-07-03T05:38:13;25.00;56.70
9919;DHT22;4998;51.024;13.828;2022-07-03T05:41:00;25.10;56.40
9919;DHT22;4998;51.024;13.828;2022-07-03T05:43:27;25.20;56.30
9919;DHT22;4998;51.024;13.828;2022-07-03T05:45:55;25.30;56.10
9919;DHT22;4998;51.024;13.828;2022-07-03T05:48:22;25.40;55.80
9919;DHT22;4998;51.024;13.828;2022-07-03T05:50:49;25.40;55.70
9919;DHT22;4998;51.024;13.828;2022-07-03T05:53:16;25.50;55.60
9919;DHT22;4998;51.024;13.828;2022-07-03T05:55:43;25.60;55.60
9919;DHT22;4998;51.024;13.828;2022-07-03T05:58:10;25.70;55.40
9919;DHT22;4998;51.024;13.828;2022-07-03T06:00:37;25.80;55.40
9919;DHT22;4998;51.024;13.828;2022-07-03T06:03:05;25.80;55.10
9919;DHT22;4998;51.024;13.828;2022-07-03T06:05:32;25.90;55.00
9919;DHT22;4998;51.024;13.828;2022-07-03T06:08:00;26.00;55.00
9919;DHT22;4998;51.024;13.828;2022-07-03T06:10:27;26.10;54.80
9919;DHT22;4998;51.024;13.828;2022-07-03T06:12:55;26.20;54.70
9919;DHT22;4998;51.024;13.828;2022-07-03T06:15:22;26.30;54.60
9919;DHT22;4998;51.024;13.828;2022-07-03T06:17:49;26.40;54.40
9919;DHT22;4998;51.024;13.828;2022-07-03T06:20:18;26.40;54.10
9919;DHT22;4998;51.024;13.828;2022-07-03T06:22:44;26.50;54.00
9919;DHT22;4998;51.024;13.828;2022-07-03T06:25:12;26.50;54.10
9919;DHT22;4998;51.024;13.828;2022-07-03T06:27:39;26.60;54.00
9919;DHT22;4998;51.024;13.828;2022-07-03T06:30:09;26.60;54.00
9919;DHT22;4998;51.024;13.828;2022-07-03T06:32:36;26.70;54.00
9919;DHT22;4998;51.024;13.828;2022-07-03T06:35:04;26.80;53.90
9919;DHT22;4998;51.024;13.828;2022-07-03T06:37:32;26.90;53.70
9919;DHT22;4998;51.024;13.828;2022-07-03T06:39:59;26.90;53.40
9919;DHT22;4998;51.024;13.828;2022-07-03T06:42:26;27.00;53.50
9919;DHT22;4998;51.024;13.828;2022-07-03T06:44:53;27.10;53.50
9919;DHT22;4998;51.024;13.828;2022-07-03T06:47:20;27.10;53.30
9919;DHT22;4998;51.024;13.828;2022-07-03T06:49:47;27.20;53.20
9919;DHT22;4998;51.024;13.828;2022-07-03T06:52:14;27.20;53.20
9919;DHT22;4998;51.024;13.828;2022-07-03T06:54:42;27.30;53.10
9919;DHT22;4998;51.024;13.828;2022-07-03T06:57:10;27.30;52.90
9919;DHT22;4998;51.024;13.828;2022-07-03T06:59:37;27.40;53.00
9919;DHT22;4998;51.024;13.828;2022-07-03T07:02:04;27.40;52.90
9919;DHT22;4998;51.024;13.828;2022-07-03T07:04:32;27.50;53.10
9919;DHT22;4998;51.024;13.828;2022-07-03T07:06:59;27.50;52.90
9919;DHT22;4998;51.024;13.828;2022-07-03T07:09:26;27.60;52.80
9919;DHT22;4998;51.024;13.828;2022-07-03T07:11:55;27.70;52.70
9919;DHT22;4998;51.024;13.828;2022-07-03T07:14:21;27.80;52.70
9919;DHT22;4998;51.024;13.828;2022-07-03T07:16:48;27.80;52.70
9919;DHT22;4998;51.024;13.828;2022-07-03T07:19:15;27.90;52.60
9919;DHT22;4998;51.024;13.828;2022-07-03T07:21:42;28.00;52.30
9919;DHT22;4998;51.024;13.828;2022-07-03T07:24:09;28.10;52.50
9919;DHT22;4998;51.024;13.828;2022-07-03T07:26:36;28.20;52.00
9919;DHT22;4998;51.024;13.828;2022-07-03T07:29:04;28.30;51.70
9919;DHT22;4998;51.024;13.828;2022-07-03T07:31:31;28.40;51.70
9919;DHT22;4998;51.024;13.828;2022-07-03T07:33:58;28.50;51.50
9919;DHT22;4998;51.024;13.828;2022-07-03T07:36:25;28.60;51.20
9919;DHT22;4998;51.024;13.828;2022-07-03T07:38:52;28.60;51.00
9919;DHT22;4998;51.024;13.828;2022-07-03T07:41:19;28.70;50.70
9919;DHT22;4998;51.024;13.828;2022-07-03T07:43:46;28.80;50.50
9919;DHT22;4998;51.024;13.828;2022-07-03T07:46:14;28.90;50.40
9919;DHT22;4998;51.024;13.828;2022-07-03T07:48:41;29.00;50.00
9919;DHT22;4998;51.024;13.828;2022-07-03T07:51:08;29.10;49.90
9919;DHT22;4998;51.024;13.828;2022-07-03T07:53:35;29.10;49.70
9919;DHT22;4998;51.024;13.828;2022-07-03T07:56:03;29.20;49.50
9919;DHT22;4998;51.024;13.828;2022-07-03T07:58:30;29.20;49.10
9919;DHT22;4998;51.024;13.828;2022-07-03T08:00:57;29.30;49.00
9919;DHT22;4998;51.024;13.828;2022-07-03T08:03:43;29.30;48.90
9919;DHT22;4998;51.024;13.828;2022-07-03T08:06:35;29.50;48.70
9919;DHT22;4998;51.024;13.828;2022-07-03T08:09:03;29.50;48.80
9919;DHT22;4998;51.024;13.828;2022-07-03T08:11:30;29.60;48.60
9919;DHT22;4998;51.024;13.828;2022-07-03T08:13:57;29.60;48.20
9919;DHT22;4998;51.024;13.828;2022-07-03T08:16:23;29.70;48.10
9919;DHT22;4998;51.024;13.828;2022-07-03T08:18:52;29.70;47.80
9919;DHT22;4998;51.024;13.828;2022-07-03T08:21:19;29.80;47.70
9919;DHT22;4998;51.024;13.828;2022-07-03T08:23:46;29.80;47.70
9919;DHT22;4998;51.024;13.828;2022-07-03T08:26:13;29.80;47.30
9919;DHT22;4998;51.024;13.828;2022-07-03T08:28:39;29.90;47.40
9919;DHT22;4998;51.024;13.828;2022-07-03T08:31:06;29.90;47.30
9919;DHT22;4998;51.024;13.828;2022-07-03T08:33:33;30.00;47.10
9919;DHT22;4998;51.024;13.828;2022-07-03T08:36:03;29.90;46.80
9919;DHT22;4998;51.024;13.828;2022-07-03T08:38:31;29.90;46.40
9919;DHT22;4998;51.024;13.828;2022-07-03T08:41:01;30.00;46.50
9919;DHT22;4998;51.024;13.828;2022-07-03T08:43:28;29.90;46.20
9919;DHT22;4998;51.024;13.828;2022-07-03T08:45:56;30.00;46.30
9919;DHT22;4998;51.024;13.828;2022-07-03T08:48:24;29.90;46.10
9919;DHT22;4998;51.024;13.828;2022-07-03T08:50:52;29.90;45.90
9919;DHT22;4998;51.024;13.828;2022-07-03T08:53:21;29.80;45.90
9919;DHT22;4998;51.024;13.828;2022-07-03T08:55:49;29.80;45.70
9919;DHT22;4998;51.024;13.828;2022-07-03T08:58:17;29.80;45.90
9919;DHT22;4998;51.024;13.828;2022-07-03T09:00:45;29.80;45.70
9919;DHT22;4998;51.024;13.828;2022-07-03T09:03:12;29.70;45.60
9919;DHT22;4998;51.024;13.828;2022-07-03T09:05:40;29.80;45.60
9919;DHT22;4998;51.024;13.828;2022-07-03T09:08:09;29.70;45.50
9919;DHT22;4998;51.024;13.828;2022-07-03T09:10:37;29.70;45.40
9919;DHT22;4998;51.024;13.828;2022-07-03T09:13:04;29.60;45.30
9919;DHT22;4998;51.024;13.828;2022-07-03T09:15:31;29.60;45.50
9919;DHT22;4998;51.024;13.828;2022-07-03T09:18:00;29.60;45.70
9919;DHT22;4998;51.024;13.828;2022-07-03T09:20:29;29.50;45.50
9919;DHT22;4998;51.024;13.828;2022-07-03T09:23:09;29.50;45.60
9919;DHT22;4998;51.024;13.828;2022-07-03T09:25:55;29.50;45.30
9919;DHT22;4998;51.024;13.828;2022-07-03T09:28:23;29.40;45.60
9919;DHT22;4998;51.024;13.828;2022-07-03T09:30:58;29.40;45.50
9919;DHT22;4998;51.024;13.828;2022-07-03T09:33:25;29.40;45.40
9919;DHT22;4998;51.024;13.828;2022-07-03T09:35:53;29.40;45.60
9919;DHT22;4998;51.024;13.828;2022-07-03T09:38:21;29.40;45.60
9919;DHT22;4998;51.024;13.828;2022-07-03T09:40:51;29.40;45.50
9919;DHT22;4998;51.024;13.828;2022-07-03T09:43:23;29.40;45.30
9919;DHT22;4998;51.024;13.828;2022-07-03T09:45:52;29.40;45.30
9919;DHT22;4998;51.024;13.828;2022-07-03T09:48:25;29.40;45.50
9919;DHT22;4998;51.024;13.828;2022-07-03T09:51:08;29.50;45.50
9919;DHT22;4998;51.024;13.828;2022-07-03T09:53:46;29.50;45.20
9919;DHT22;4998;51.024;13.828;2022-07-03T09:56:15;29.50;45.10
9919;DHT22;4998;51.024;13.828;2022-07-03T09:59:01;29.50;45.00
9919;DHT22;4998;51.024;13.828;2022-07-03T10:01:29;29.60;44.50
9919;DHT22;4998;51.024;13.828;2022-07-03T10:04:12;29.40;44.50
9919;DHT22;4998;51.024;13.828;2022-07-03T10:06:53;29.60;44.60
9919;DHT22;4998;51.024;13.828;2022-07-03T10:09:23;29.70;44.60
9919;DHT22;4998;51.024;13.828;2022-07-03T10:11:53;29.70;44.50
9919;DHT22;4998;51.024;13.828;2022-07-03T10:14:22;29.70;44.40
9919;DHT22;4998;51.024;13.828;2022-07-03T10:16:49;29.80;45.00
9919;DHT22;4998;51.024;13.828;2022-07-03T10:19:18;29.80;45.20
9919;DHT22;4998;51.024;13.828;2022-07-03T10:21:50;29.90;44.30
9919;DHT22;4998;51.024;13.828;2022-07-03T10:24:21;30.00;44.30
9919;DHT22;4998;51.024;13.828;2022-07-03T10:26:49;30.00;44.20
9919;DHT22;4998;51.024;13.828;2022-07-03T10:29:20;30.00;43.60
9919;DHT22;4998;51.024;13.828;2022-07-03T10:31:48;30.10;43.50
9919;DHT22;4998;51.024;13.828;2022-07-03T10:34:19;30.10;43.80
9919;DHT22;4998;51.024;13.828;2022-07-03T10:36:48;30.10;43.10
9919;DHT22;4998;51.024;13.828;2022-07-03T10:39:26;30.20;43.00
9919;DHT22;4998;51.024;13.828;2022-07-03T10:41:56;30.30;43.00
9919;DHT22;4998;51.024;13.828;2022-07-03T10:44:55;30.30;43.40
9919;DHT22;4998;51.024;13.828;2022-07-03T10:47:45;30.30;43.40
9919;DHT22;4998;51.024;13.828;2022-07-03T10:50:14;30.40;43.30
9919;DHT22;4998;51.024;13.828;2022-07-03T10:52:42;30.20;42.80
9919;DHT22;4998;51.024;13.828;2022-07-03T10:55:10;30.40;42.60
9919;DHT22;4998;51.024;13.828;2022-07-03T10:57:38;30.50;42.60
9919;DHT22;4998;51.024;13.828;2022-07-03T11:00:15;30.50;42.50
9919;DHT22;4998;51.024;13.828;2022-07-03T11:02:47;30.60;42.60
9919;DHT22;4998;51.024;13.828;2022-07-03T11:05:23;30.60;42.40
9919;DHT22;4998;51.024;13.828;2022-07-03T11:08:07;30.60;42.20
9919;DHT22;4998;51.024;13.828;2022-07-03T11:10:36;30.60;42.00
9919;DHT22;4998;51.024;13.828;2022-07-03T11:13:17;30.60;42.00
9919;DHT22;4998;51.024;13.828;2022-07-03T11:15:50;30.70;41.90
9919;DHT22;4998;51.024;13.828;2022-07-03T11:18:35;30.70;41.90
9919;DHT22;4998;51.024;13.828;2022-07-03T11:21:26;30.70;41.80
9919;DHT22;4998;51.024;13.828;2022-07-03T11:24:35;30.70;41.70
9919;DHT22;4998;51.024;13.828;2022-07-03T11:27:27;30.70;41.90
9919;DHT22;4998;51.024;13.828;2022-07-03T11:30:00;30.70;41.60
9919;DHT22;4998;51.024;13.828;2022-07-03T11:32:51;30.80;41.40
9919;DHT22;4998;51.024;13.828;2022-07-03T11:38:27;30.80;41.10
9919;DHT22;4998;51.024;13.828;2022-07-03T11:40:58;30.80;41.10
9919;DHT22;4998;51.024;13.828;2022-07-03T11:43:26;30.80;41.00
9919;DHT22;4998;51.024;13.828;2022-07-03T11:45:53;30.80;40.90
9919;DHT22;4998;51.024;13.828;2022-07-03T11:48:23;30.80;41.10
9919;DHT22;4998;51.024;13.828;2022-07-03T11:50:51;30.80;41.10
9919;DHT22;4998;51.024;13.828;2022-07-03T11:53:24;30.90;41.40
9919;DHT22;4998;51.024;13.828;2022-07-03T11:55:53;30.90;40.90
9919;DHT22;4998;51.024;13.828;2022-07-03T11:58:22;31.00;40.90
9919;DHT22;4998;51.024;13.828;2022-07-03T12:00:50;31.00;40.70
9919;DHT22;4998;51.024;13.828;2022-07-03T12:03:25;31.10;40.70
9919;DHT22;4998;51.024;13.828;2022-07-03T12:05:55;31.10;40.50
9919;DHT22;4998;51.024;13.828;2022-07-03T12:08:25;31.10;40.40
9919;DHT22;4998;51.024;13.828;2022-07-03T12:10:58;31.20;40.50
9919;DHT22;4998;51.024;13.828;2022-07-03T12:13:26;31.20;40.40
9919;DHT22;4998;51.024;13.828;2022-07-03T12:16:01;31.30;40.40
9919;DHT22;4998;51.024;13.828;2022-07-03T12:18:42;31.30;40.00
9919;DHT22;4998;51.024;13.828;2022-07-03T12:21:09;31.40;40.10
9919;DHT22;4998;51.024;13.828;2022-07-03T12:23:44;31.40;39.90
9919;DHT22;4998;51.024;13.828;2022-07-03T12:26:12;31.40;39.70
9919;DHT22;4998;51.024;13.828;2022-07-03T12:28:41;31.50;39.90
9919;DHT22;4998;51.024;13.828;2022-07-03T12:31:09;31.50;39.70
9919;DHT22;4998;51.024;13.828;2022-07-03T12:33:36;31.50;39.60
9919;DHT22;4998;51.024;13.828;2022-07-03T12:36:06;31.50;39.50
9919;DHT22;4998;51.024;13.828;2022-07-03T12:38:36;31.60;39.10
9919;DHT22;4998;51.024;13.828;2022-07-03T12:41:04;31.60;39.30
9919;DHT22;4998;51.024;13.828;2022-07-03T12:43:44;31.60;39.30
9919;DHT22;4998;51.024;13.828;2022-07-03T12:46:19;31.60;39.20
9919;DHT22;4998;51.024;13.828;2022-07-03T12:48:47;31.70;39.00
9919;DHT22;4998;51.024;13.828;2022-07-03T12:51:17;31.70;38.90
9919;DHT22;4998;51.024;13.828;2022-07-03T12:54:02;31.70;38.60
9919;DHT22;4998;51.024;13.828;2022-07-03T12:56:29;31.70;38.70
9919;DHT22;4998;51.024;13.828;2022-07-03T12:58:56;31.70;38.50
9919;DHT22;4998;51.024;13.828;2022-07-03T13:01:40;31.70;38.50
9919;DHT22;4998;51.024;13.828;2022-07-03T13:04:08;31.70;38.60
9919;DHT22;4998;51.024;13.828;2022-07-03T13:06:41;31.70;38.70
9919;DHT22;4998;51.024;13.828;2022-07-03T13:09:11;31.70;38.80
9919;DHT22;4998;51.024;13.828;2022-07-03T13:11:39;31.80;38.90
9919;DHT22;4998;51.024;13.828;2022-07-03T13:14:09;31.80;38.90
9919;DHT22;4998;51.024;13.828;2022-07-03T13:16:38;31.90;38.90
9919;DHT22;4998;51.024;13.828;2022-07-03T13:19:07;31.90;38.60
9919;DHT22;4998;51.024;13.828;2022-07-03T13:21:34;32.00;39.10
9919;DHT22;4998;51.024;13.828;2022-07-03T13:24:04;32.00;38.50
9919;DHT22;4998;51.024;13.828;2022-07-03T13:26:31;32.10;38.50
9919;DHT22;4998;51.024;13.828;2022-07-03T13:28:58;32.10;38.40
9919;DHT22;4998;51.024;13.828;2022-07-03T13:31:24;32.20;38.50
9919;DHT22;4998;51.024;13.828;2022-07-03T13:33:51;32.20;38.60
9919;DHT22;4998;51.024;13.828;2022-07-03T13:36:18;32.30;38.30
9919;DHT22;4998;51.024;13.828;2022-07-03T13:38:45;32.30;38.20
9919;DHT22;4998;51.024;13.828;2022-07-03T13:41:14;32.30;38.00
9919;DHT22;4998;51.024;13.828;2022-07-03T13:43:41;32.40;38.10
9919;DHT22;4998;51.024;13.828;2022-07-03T13:46:09;32.40;38.00
9919;DHT22;4998;51.024;13.828;2022-07-03T13:48:36;32.50;37.90
9919;DHT22;4998;51.024;13.828;2022-07-03T13:51:04;32.50;37.70
9919;DHT22;4998;51.024;13.828;2022-07-03T13:53:32;32.50;37.60
9919;DHT22;4998;51.024;13.828;2022-07-03T13:55:59;32.50;38.20
9919;DHT22;4998;51.024;13.828;2022-07-03T13:58:28;32.50;37.50
9919;DHT22;4998;51.024;13.828;2022-07-03T14:00:55;32.50;37.10
9919;DHT22;4998;51.024;13.828;2022-07-03T14:03:22;32.50;37.40
9919;DHT22;4998;51.024;13.828;2022-07-03T14:05:49;32.50;37.30
9919;DHT22;4998;51.024;13.828;2022-07-03T14:08:17;32.50;37.20
9919;DHT22;4998;51.024;13.828;2022-07-03T14:10:44;32.50;37.20
9919;DHT22;4998;51.024;13.828;2022-07-03T14:13:12;32.50;37.30
9919;DHT22;4998;51.024;13.828;2022-07-03T14:15:40;32.50;37.40
9919;DHT22;4998;51.024;13.828;2022-07-03T14:18:07;32.50;37.00
9919;DHT22;4998;51.024;13.828;2022-07-03T14:20:34;32.60;37.20
9919;DHT22;4998;51.024;13.828;2022-07-03T14:23:01;32.60;37.10
9919;DHT22;4998;51.024;13.828;2022-07-03T14:25:28;32.60;37.00
9919;DHT22;4998;51.024;13.828;2022-07-03T14:27:55;32.70;37.00
9919;DHT22;4998;51.024;13.828;2022-07-03T14:30:41;32.70;37.00
9919;DHT22;4998;51.024;13.828;2022-07-03T14:33:28;32.80;37.10
9919;DHT22;4998;51.024;13.828;2022-07-03T14:35:55;32.80;36.90
9919;DHT22;4998;51.024;13.828;2022-07-03T14:38:22;32.80;36.80
9919;DHT22;4998;51.024;13.828;2022-07-03T14:40:49;32.90;37.50
9919;DHT22;4998;51.024;13.828;2022-07-03T14:43:17;33.00;36.90
9919;DHT22;4998;51.024;13.828;2022-07-03T14:45:55;33.00;36.60
9919;DHT22;4998;51.024;13.828;2022-07-03T14:48:22;33.10;36.50
9919;DHT22;4998;51.024;13.828;2022-07-03T14:50:49;33.20;36.50
9919;DHT22;4998;51.024;13.828;2022-07-03T14:53:16;33.20;36.40
9919;DHT22;4998;51.024;13.828;2022-07-03T14:55:43;33.30;36.40
9919;DHT22;4998;51.024;13.828;2022-07-03T14:58:15;33.30;36.10
9919;DHT22;4998;51.024;13.828;2022-07-03T15:00:48;33.30;35.80
9919;DHT22;4998;51.024;13.828;2022-07-03T15:03:25;33.40;35.80
9919;DHT22;4998;51.024;13.828;2022-07-03T15:05:55;33.40;35.90
9919;DHT22;4998;51.024;13.828;2022-07-03T15:08:42;33.40;35.90
9919;DHT22;4998;51.024;13.828;2022-07-03T15:11:14;33.40;35.90
9919;DHT22;4998;51.024;13.828;2022-07-03T15:14:01;33.50;35.60
9919;DHT22;4998;51.024;13.828;2022-07-03T15:16:29;33.50;35.60
9919;DHT22;4998;51.024;13.828;2022-07-03T15:19:00;33.50;35.30
9919;DHT22;4998;51.024;13.828;2022-07-03T15:21:30;33.40;35.00
9919;DHT22;4998;51.024;13.828;2022-07-03T15:24:00;33.40;35.00
9919;DHT22;4998;51.024;13.828;2022-07-03T15:26:29;33.40;35.00
9919;DHT22;4998;51.024;13.828;2022-07-03T15:28:59;33.40;35.10
9919;DHT22;4998;51.024;13.828;2022-07-03T15:31:28;33.50;35.10
9919;DHT22;4998;51.024;13.828;2022-07-03T15:33:55;33.60;35.10
9919;DHT22;4998;51.024;13.828;2022-07-03T15:36:26;33.60;35.20
9919;DHT22;4998;51.024;13.828;2022-07-03T15:39:01;33.80;35.20
9919;DHT22;4998;51.024;13.828;2022-07-03T15:41:38;33.90;34.70
9919;DHT22;4998;51.024;13.828;2022-07-03T15:44:17;34.00;34.50
9919;DHT22;4998;51.024;13.828;2022-07-03T15:46:58;34.10;34.30
9919;DHT22;4998;51.024;13.828;2022-07-03T15:49:35;34.10;34.10
9919;DHT22;4998;51.024;13.828;2022-07-03T15:52:16;34.10;34.10
9919;DHT22;4998;51.024;13.828;2022-07-03T15:54:52;34.00;34.30
9919;DHT22;4998;51.024;13.828;2022-07-03T15:57:32;33.90;34.30
9919;DHT22;4998;51.024;13.828;2022-07-03T16:00:04;33.90;34.10
9919;DHT22;4998;51.024;13.828;2022-07-03T16:05:25;33.80;34.00
9919;DHT22;4998;51.024;13.828;2022-07-03T16:07:54;33.70;34.00
9919;DHT22;4998;51.024;13.828;2022-07-03T16:10:21;33.70;33.90